Weather at Stinson Municipal Airport

Public forecast

Using degrees Fahrenheit for public forecast. Weather courtesy of forecast.io.

Current aviation weather report (METAR) for Stinson Municipal Airport

Report is more than 6 hours old.

2024/06/24 05:53 (retrieved 1 day ago)

KSSF 240553Z AUTO 00000KT 10SM FEW065 27/24 A2994 RMK AO2 SLP123 T02720239 10350 20272 403610228 51010

Aviation forecast (TAF) for Stinson Municipal Airport

Forecast is more than 12 hours old.

2024/06/24 18:22 (retrieved 15 hours ago)

TAF KSSF 241720Z 2418/2518 15005KT P6SM SCT035 BKN045 FM250800 15003KT P6SM BKN012